Time;durP1;ratioP1;P1;durP2;ratioP2;P2;SDS_P1;SDS_P2;PMS_P1;PMS_P2;Temp;Humidity;BMP_temperature;BMP_pressure;BME280_temperature;BME280_humidity;BME280_pressure;Samples;Min_cycle;Max_cycle;Signal;HPM_P1;HPM_P2
2021/11/30 00:00:12;;;;;;;27.23;16.27;;;128.80;1792.00;;;;;;5120413;27;20028;-56
2021/11/30 00:02:38;;;;;;;31.48;16.92;;;128.90;1843.20;;;;;;5120357;28;20041;-56
2021/11/30 00:05:06;;;;;;;31.80;18.70;;;153.60;1843.20;;;;;;5119987;28;20012;-55
2021/11/30 00:07:33;;;;;;;33.03;17.70;;;153.60;1817.60;;;;;;5120241;28;20035;-56
2021/11/30 00:12:28;;;;;;;33.15;19.67;;;128.90;1766.40;;;;;;5120245;28;20004;-56
2021/11/30 00:14:55;;;;;;;29.30;17.17;;;128.90;1766.40;;;;;;5120106;28;20019;-56
2021/11/30 00:17:22;;;;;;;31.90;18.35;;;128.80;1792.00;;;;;;5120108;28;20024;-56
2021/11/30 00:19:50;;;;;;;24.15;15.63;;;128.70;1817.60;;;;;;5120089;28;20055;-56
2021/11/30 00:22:19;;;;;;;24.83;15.70;;;128.80;1792.00;;;;;;5119957;28;20012;-56
2021/11/30 00:24:45;;;;;;;25.23;14.95;;;128.80;1766.40;;;;;;5119954;28;20032;-56
2021/11/30 00:27:11;;;;;;;25.08;15.13;;;128.70;1792.00;;;;;;5119772;28;20020;-56
2021/11/30 00:29:37;;;;;;;23.92;15.15;;;128.70;1817.60;;;;;;5119842;28;20019;-56
2021/11/30 00:32:03;;;;;;;22.08;12.95;;;128.70;1792.00;;;;;;5119909;28;20012;-56
2021/11/30 00:34:29;;;;;;;21.38;13.15;;;128.70;1766.40;;;;;;5119519;28;20008;-56
2021/11/30 00:36:55;;;;;;;22.75;13.93;;;128.70;1766.40;;;;;;5119815;28;20024;-56
2021/11/30 00:39:21;;;;;;;20.88;13.93;;;128.70;1792.00;;;;;;5119650;28;20020;-57
2021/11/30 00:41:50;;;;;;;23.23;14.38;;;128.60;1792.00;;;;;;5118983;28;20028;-56
2021/11/30 00:44:19;;;;;;;20.67;12.80;;;128.60;1766.40;;;;;;5119512;28;20032;-56
2021/11/30 00:46:47;;;;;;;18.48;13.02;;;128.60;1766.40;;;;;;5119460;28;20024;-56
2021/11/30 00:49:13;;;;;;;21.33;13.90;;;128.40;1766.40;;;;;;5119588;28;20039;-56
2021/11/30 00:51:43;;;;;;;22.08;13.45;;;128.30;1817.60;;;;;;5119361;28;20016;-56
2021/11/30 00:54:10;;;;;;;20.15;13.77;;;128.40;1817.60;;;;;;5119271;28;20047;-56
2021/11/30 00:56:39;;;;;;;21.02;13.52;;;128.40;1766.40;;;;;;5119420;28;20020;-56
2021/11/30 00:59:05;;;;;;;21.83;13.50;;;128.20;1792.00;;;;;;5119215;28;20008;-56
2021/11/30 01:01:32;;;;;;;19.67;13.73;;;128.00;1817.60;;;;;;5119091;28;20059;-56
2021/11/30 01:03:59;;;;;;;23.52;13.75;;;103.20;1792.00;;;;;;5119246;28;20009;-56
2021/11/30 01:06:25;;;;;;;21.23;14.20;;;103.20;1792.00;;;;;;5119153;28;20027;-55
2021/11/30 01:08:51;;;;;;;25.65;14.30;;;103.20;1868.80;;;;;;5119110;28;20016;-56
2021/11/30 01:11:17;;;;;;;18.70;13.32;;;103.30;1971.20;;;;;;5119151;28;20039;-56
2021/11/30 01:13:43;;;;;;;20.65;13.82;;;128.00;1996.80;;;;;;5119109;28;20094;-56
2021/11/30 01:16:08;;;;;;;20.63;14.30;;;128.10;1894.40;;;;;;5118940;28;20012;-55
2021/11/30 01:18:34;;;;;;;25.15;14.32;;;128.10;1868.80;;;;;;5118959;28;20042;-56
2021/11/30 01:21:01;;;;;;;25.48;14.80;;;128.10;1843.20;;;;;;5118951;28;20016;-56
2021/11/30 01:23:30;;;;;;;21.38;14.07;;;128.10;1792.00;;;;;;5118872;28;20046;-56
2021/11/30 01:25:57;;;;;;;23.88;14.07;;;128.10;1843.20;;;;;;5118907;28;20008;-57
2021/11/30 01:28:23;;;;;;;23.45;14.55;;;128.20;1868.80;;;;;;5118613;28;20047;-55
2021/11/30 01:30:49;;;;;;;23.42;15.00;;;128.10;1817.60;;;;;;5118791;28;20016;-56
2021/11/30 01:33:15;;;;;;;25.17;15.55;;;128.00;1817.60;;;;;;5118795;28;20008;-56
2021/11/30 01:35:44;;;;;;;24.25;15.23;;;128.10;1843.20;;;;;;5117622;28;20027;-56
2021/11/30 01:38:10;;;;;;;21.13;13.75;;;128.10;1868.80;;;;;;5118681;28;20009;-56
2021/11/30 01:40:37;;;;;;;21.45;13.20;;;128.20;1817.60;;;;;;5118549;28;20008;-57
2021/11/30 01:43:05;;;;;;;22.02;13.38;;;128.10;1817.60;;;;;;5118677;28;20020;-56
2021/11/30 01:45:45;;;;;;;21.75;14.63;;;128.10;1792.00;;;;;;5118608;28;20019;-55
2021/11/30 01:50:54;;;;;;;23.38;13.38;;;128.20;1817.60;;;;;;5118588;28;20001;-56
2021/11/30 01:53:20;;;;;;;22.52;13.23;;;128.20;1792.00;;;;;;5118366;28;20017;-56
2021/11/30 01:55:46;;;;;;;20.73;13.75;;;128.00;1817.60;;;;;;5118291;28;20043;-56
2021/11/30 01:58:14;;;;;;;16.90;12.15;;;103.20;1817.60;;;;;;5118330;28;20011;-56
2021/11/30 02:00:41;;;;;;;22.92;13.18;;;103.10;1817.60;;;;;;5118447;28;20008;-55
2021/11/30 02:03:07;;;;;;;20.60;13.75;;;103.00;1817.60;;;;;;5118396;28;20025;-56
2021/11/30 02:05:35;;;;;;;20.52;13.18;;;103.00;1868.80;;;;;;5118310;28;20033;-56
2021/11/30 02:08:01;;;;;;;19.90;13.00;;;103.10;1894.40;;;;;;5118257;28;20072;-56
2021/11/30 02:10:28;;;;;;;20.60;13.07;;;103.30;1894.40;;;;;;5118134;28;20025;-56
2021/11/30 02:12:54;;;;;;;20.00;13.05;;;103.30;1868.80;;;;;;5118322;28;20017;-56
2021/11/30 02:15:23;;;;;;;21.40;13.55;;;128.00;1868.80;;;;;;5118152;28;20020;-56
2021/11/30 02:17:50;;;;;;;26.50;14.48;;;103.30;1817.60;;;;;;5118211;28;20067;-56
2021/11/30 02:20:16;;;;;;;22.42;13.20;;;103.30;1868.80;;;;;;5118117;28;20031;-56
2021/11/30 02:22:47;;;;;;;21.20;13.77;;;128.00;1868.80;;;;;;5118294;28;20032;-56
2021/11/30 02:25:13;;;;;;;30.52;14.18;;;128.00;1843.20;;;;;;5118101;28;20034;-56
2021/11/30 02:27:39;;;;;;;23.08;14.05;;;128.00;1843.20;;;;;;5118205;28;20048;-58
2021/11/30 02:30:05;;;;;;;28.25;15.32;;;128.10;1868.80;;;;;;5118220;28;20019;-56
2021/11/30 02:32:31;;;;;;;22.27;13.90;;;128.10;1868.80;;;;;;5117914;28;20031;-56
2021/11/30 02:34:56;;;;;;;21.70;13.50;;;128.00;1843.20;;;;;;5118145;28;20032;-56
2021/11/30 02:37:25;;;;;;;22.00;13.90;;;128.00;1868.80;;;;;;5117984;28;20023;-56
2021/11/30 02:39:51;;;;;;;22.33;12.82;;;128.10;1868.80;;;;;;5118102;28;20012;-56
2021/11/30 02:42:17;;;;;;;22.25;12.55;;;128.20;1843.20;;;;;;5118145;28;20024;-56
2021/11/30 02:44:43;;;;;;;23.92;13.57;;;128.20;1817.60;;;;;;5117944;28;20009;-56
2021/11/30 02:47:12;;;;;;;19.23;12.68;;;128.20;1843.20;;;;;;5117930;28;20048;-56
2021/11/30 02:49:40;;;;;;;17.90;11.80;;;128.20;1868.80;;;;;;5117828;28;20033;-56
2021/11/30 02:52:10;;;;;;;16.25;11.52;;;128.20;1817.60;;;;;;5117795;28;20008;-56
2021/11/30 02:54:41;;;;;;;16.90;11.82;;;128.20;1792.00;;;;;;5117830;28;20051;-56
2021/11/30 02:57:09;;;;;;;17.58;11.77;;;128.20;1817.60;;;;;;5117947;28;20034;-56
2021/11/30 02:59:38;;;;;;;17.20;11.50;;;128.10;1868.80;;;;;;5117881;28;20016;-57
2021/11/30 03:02:13;;;;;;;15.73;10.82;;;128.20;1868.80;;;;;;5117980;28;20009;-55
2021/11/30 03:04:41;;;;;;;17.88;11.80;;;128.20;1843.20;;;;;;5118771;28;20034;-56
2021/11/30 03:07:20;;;;;;;19.40;12.55;;;128.00;1868.80;;;;;;5121380;28;20040;-57
2021/11/30 03:09:47;;;;;;;16.52;11.48;;;103.30;1843.20;;;;;;5121455;27;20014;-56
2021/11/30 03:12:13;;;;;;;14.43;9.65;;;128.00;1868.80;;;;;;5121408;28;20025;-57
2021/11/30 03:14:39;;;;;;;16.80;10.43;;;128.00;1843.20;;;;;;5121274;28;20016;-56
2021/11/30 03:17:05;;;;;;;16.95;10.50;;;128.00;1843.20;;;;;;5121236;28;20068;-56
2021/11/30 03:19:31;;;;;;;15.15;10.57;;;128.10;1843.20;;;;;;5121332;28;20012;-56
2021/11/30 03:21:59;;;;;;;15.52;10.27;;;128.10;1868.80;;;;;;5121279;28;20036;-56
2021/11/30 03:24:25;;;;;;;15.70;10.63;;;128.10;1894.40;;;;;;5121249;28;20034;-56
2021/11/30 03:26:51;;;;;;;13.43;9.38;;;128.20;1920.00;;;;;;5121100;28;20032;-56
2021/11/30 03:29:17;;;;;;;15.07;9.30;;;128.30;1894.40;;;;;;5120880;28;20020;-56
2021/11/30 03:34:11;;;;;;;15.02;9.68;;;128.30;1843.20;;;;;;5120884;28;20019;-56
2021/11/30 03:36:38;;;;;;;15.50;9.60;;;128.30;1843.20;;;;;;5121039;28;20016;-56
2021/11/30 03:39:09;;;;;;;12.93;8.90;;;128.30;1868.80;;;;;;5120876;28;20062;-56
2021/11/30 03:41:35;;;;;;;12.80;8.65;;;128.20;1868.80;;;;;;5120822;28;20008;-56
2021/11/30 03:44:04;;;;;;;13.80;9.40;;;128.20;1843.20;;;;;;5120709;28;20036;-56
2021/11/30 03:46:31;;;;;;;13.63;9.23;;;128.20;1843.20;;;;;;5120659;28;20111;-56
2021/11/30 03:48:58;;;;;;;13.60;9.57;;;128.20;1868.80;;;;;;5120733;28;20087;-57
2021/11/30 03:51:25;;;;;;;12.02;8.07;;;128.30;1843.20;;;;;;5120634;28;20035;-56
2021/11/30 03:53:50;;;;;;;12.23;8.68;;;128.30;1843.20;;;;;;5120331;28;20017;-56
2021/11/30 03:56:16;;;;;;;13.18;8.27;;;128.20;1843.20;;;;;;5120625;28;20067;-56
2021/11/30 03:58:42;;;;;;;15.10;9.10;;;128.20;1868.80;;;;;;5120501;28;20012;-56
2021/11/30 04:01:08;;;;;;;13.00;8.23;;;128.20;1843.20;;;;;;5120479;28;20023;-56
2021/11/30 04:03:34;;;;;;;14.13;8.98;;;128.20;1817.60;;;;;;5120343;28;20020;-55
2021/11/30 04:06:02;;;;;;;16.10;9.23;;;128.20;1843.20;;;;;;5120221;28;20066;-56
2021/11/30 04:08:28;;;;;;;16.00;10.02;;;128.20;1843.20;;;;;;5120225;28;20050;-56
2021/11/30 04:10:54;;;;;;;18.55;10.38;;;128.20;1817.60;;;;;;5120320;28;20017;-56
2021/11/30 04:13:20;;;;;;;20.20;11.05;;;128.00;1817.60;;;;;;5120131;28;20008;-57
2021/11/30 04:15:45;;;;;;;18.27;10.00;;;128.00;1894.40;;;;;;5119459;28;20072;-56
2021/11/30 04:18:11;;;;;;;14.93;9.15;;;128.20;1868.80;;;;;;5119572;28;20012;-58
2021/11/30 04:20:37;;;;;;;24.63;9.80;;;128.20;1843.20;;;;;;5119981;28;20043;-56
2021/11/30 04:23:04;;;;;;;22.25;10.25;;;128.10;1868.80;;;;;;5119654;28;20020;-55
2021/11/30 04:25:30;;;;;;;27.35;12.10;;;128.20;1868.80;;;;;;5119398;28;20008;-56
2021/11/30 04:27:56;;;;;;;22.25;11.27;;;128.20;1894.40;;;;;;5119842;28;20023;-56
2021/11/30 04:30:22;;;;;;;21.58;11.20;;;128.20;1868.80;;;;;;5119699;28;20099;-56
2021/11/30 04:32:48;;;;;;;24.08;12.05;;;128.30;1868.80;;;;;;5119877;28;20020;-56
2021/11/30 04:35:13;;;;;;;23.92;11.73;;;128.20;1868.80;;;;;;5119801;28;20008;-56
2021/11/30 04:37:39;;;;;;;22.60;11.70;;;128.20;1868.80;;;;;;5119761;28;20027;-56
2021/11/30 04:40:10;;;;;;;26.67;12.43;;;128.20;1843.20;;;;;;5119575;28;20008;-56
2021/11/30 04:42:38;;;;;;;27.92;12.80;;;128.30;1868.80;;;;;;5119581;28;20019;-56
2021/11/30 04:45:09;;;;;;;27.40;13.75;;;128.30;1843.20;;;;;;5119578;28;20008;-56
2021/11/30 04:47:38;;;;;;;28.40;13.15;;;128.30;1843.20;;;;;;5119459;28;20039;-56
2021/11/30 04:50:15;;;;;;;25.48;11.45;;;128.30;1843.20;;;;;;5119455;28;20034;-56
2021/11/30 04:52:42;;;;;;;26.50;13.10;;;128.40;1843.20;;;;;;5119353;28;20080;-56
2021/11/30 04:55:08;;;;;;;27.70;14.95;;;128.40;1843.20;;;;;;5119305;28;20064;-56
2021/11/30 04:57:34;;;;;;;28.60;14.43;;;128.40;1843.20;;;;;;5119173;28;20029;-56
2021/11/30 05:00:00;;;;;;;29.35;13.80;;;128.40;1843.20;;;;;;5119297;28;20077;-56
2021/11/30 05:02:26;;;;;;;30.75;13.50;;;128.30;1843.20;;;;;;5119319;28;20019;-56
2021/11/30 05:04:51;;;;;;;29.55;13.70;;;128.30;1843.20;;;;;;5119205;28;20032;-56
2021/11/30 05:07:18;;;;;;;36.85;15.93;;;128.40;1843.20;;;;;;5119069;28;20048;-56
2021/11/30 05:09:44;;;;;;;34.67;15.80;;;128.40;1843.20;;;;;;5119160;28;20008;-56
2021/11/30 05:12:10;;;;;;;33.42;14.70;;;128.30;1843.20;;;;;;5119152;28;20007;-56
2021/11/30 05:14:37;;;;;;;35.45;16.08;;;128.40;1843.20;;;;;;5118994;28;20091;-56
2021/11/30 05:17:03;;;;;;;33.13;15.50;;;128.40;1843.20;;;;;;5118993;28;20042;-56
2021/11/30 05:19:29;;;;;;;30.17;15.10;;;128.40;1843.20;;;;;;5118945;28;20012;-55
2021/11/30 05:21:55;;;;;;;33.30;15.48;;;128.40;1843.20;;;;;;5118972;28;20014;-56
2021/11/30 05:24:20;;;;;;;33.75;16.33;;;128.40;1843.20;;;;;;5118895;28;20068;-56
2021/11/30 05:26:48;;;;;;;29.35;14.40;;;128.40;1843.20;;;;;;5118749;28;20024;-56
2021/11/30 05:29:14;;;;;;;29.98;14.23;;;128.40;1843.20;;;;;;5118510;28;20028;-56
2021/11/30 05:31:39;;;;;;;32.53;15.95;;;128.30;1843.20;;;;;;5118715;28;20004;-56
2021/11/30 05:34:08;;;;;;;38.47;18.15;;;128.30;1843.20;;;;;;5118763;28;20016;-56
2021/11/30 05:36:34;;;;;;;29.88;15.38;;;128.30;1843.20;;;;;;5118736;28;20017;-56
2021/11/30 05:39:01;;;;;;;32.63;16.88;;;128.30;1843.20;;;;;;5118750;28;20061;-56
2021/11/30 05:41:27;;;;;;;27.48;14.15;;;128.40;1843.20;;;;;;5118645;28;20076;-56
2021/11/30 05:43:53;;;;;;;23.30;13.57;;;128.40;1843.20;;;;;;5118553;28;20015;-56
2021/11/30 05:46:20;;;;;;;23.73;13.15;;;128.40;1817.60;;;;;;5118435;28;20023;-56
2021/11/30 05:48:47;;;;;;;21.13;13.23;;;128.40;1843.20;;;;;;5118602;28;20023;-56
2021/11/30 05:51:12;;;;;;;25.08;13.23;;;128.30;1843.20;;;;;;5118569;28;20072;-56
2021/11/30 05:53:38;;;;;;;21.13;13.15;;;128.30;1843.20;;;;;;5118555;28;20030;-56
2021/11/30 05:56:08;;;;;;;20.05;12.77;;;128.30;1843.20;;;;;;5118334;28;20036;-56
2021/11/30 05:58:40;;;;;;;24.70;13.23;;;128.40;1843.20;;;;;;5118417;28;20012;-56
2021/11/30 06:01:48;;;;;;;20.98;11.65;;;128.30;1843.20;;;;;;5118324;28;20020;-56
2021/11/30 06:04:04;;;;;;;15.30;10.48;;;128.30;1843.20;;;;;;5107604;28;20050;-55
2021/11/30 06:06:32;;;;;;;16.83;10.50;;;128.20;1843.20;;;;;;5118305;28;20028;-56
2021/11/30 06:08:59;;;;;;;18.17;11.93;;;128.20;1843.20;;;;;;5118237;28;20107;-55
2021/11/30 06:11:26;;;;;;;18.33;12.68;;;128.20;1843.20;;;;;;5118317;28;20017;-56
2021/11/30 06:13:51;;;;;;;16.52;10.60;;;128.20;1843.20;;;;;;5118276;28;20004;-56
2021/11/30 06:16:18;;;;;;;16.23;9.93;;;128.20;1843.20;;;;;;5118055;28;20026;-56
2021/11/30 06:18:44;;;;;;;17.05;10.30;;;128.20;1843.20;;;;;;5118277;28;20023;-56
2021/11/30 06:21:14;;;;;;;18.52;10.85;;;128.30;1817.60;;;;;;5118324;28;20080;-56
2021/11/30 06:23:41;;;;;;;18.73;10.75;;;128.20;1843.20;;;;;;5118248;28;20016;-56
2021/11/30 06:26:09;;;;;;;18.05;9.88;;;128.20;1843.20;;;;;;5118157;28;20039;-56
2021/11/30 06:28:36;;;;;;;15.95;9.85;;;128.20;1817.60;;;;;;5118167;28;20020;-56
2021/11/30 06:31:02;;;;;;;14.68;10.18;;;128.20;1817.60;;;;;;5117983;28;20019;-56
2021/11/30 06:33:28;;;;;;;17.67;11.30;;;128.30;1817.60;;;;;;5118017;28;20031;-56
2021/11/30 06:35:54;;;;;;;24.38;12.88;;;128.20;1817.60;;;;;;5117965;28;20020;-55
2021/11/30 06:38:20;;;;;;;21.80;12.13;;;128.20;1817.60;;;;;;5117998;28;20012;-56
2021/11/30 06:40:46;;;;;;;22.67;13.25;;;128.20;1817.60;;;;;;5120785;28;20036;-55
2021/11/30 06:43:11;;;;;;;24.77;15.50;;;128.20;1817.60;;;;;;5121890;28;20012;-55
2021/11/30 06:45:37;;;;;;;22.15;14.23;;;128.20;1817.60;;;;;;5121529;28;20024;-56
2021/11/30 06:48:03;;;;;;;20.85;13.77;;;128.20;1817.60;;;;;;5121350;28;20083;-55
2021/11/30 06:50:29;;;;;;;23.27;13.50;;;128.30;1817.60;;;;;;5121110;28;20017;-56
2021/11/30 06:52:55;;;;;;;18.65;12.52;;;128.30;1817.60;;;;;;5121417;28;20043;-55
2021/11/30 06:55:21;;;;;;;19.00;13.90;;;128.40;1817.60;;;;;;5120963;28;20047;-55
2021/11/30 06:57:46;;;;;;;25.85;14.75;;;128.40;1817.60;;;;;;5121326;28;20015;-57
2021/11/30 07:00:14;;;;;;;19.15;11.77;;;128.40;1817.60;;;;;;5120803;28;20016;-56
2021/11/30 07:02:41;;;;;;;16.05;10.43;;;128.40;1817.60;;;;;;5121509;28;20040;-56
2021/11/30 07:05:22;;;;;;;19.05;10.10;;;128.40;1817.60;;;;;;5121510;28;20031;-56
2021/11/30 07:07:56;;;;;;;21.20;11.10;;;128.40;1817.60;;;;;;5121411;28;20032;-56
2021/11/30 07:13:05;;;;;;;30.77;15.35;;;128.50;1817.60;;;;;;5121401;28;20012;-56
2021/11/30 07:15:31;;;;;;;32.47;15.20;;;128.50;1817.60;;;;;;5121351;28;20200;-56
2021/11/30 07:17:59;;;;;;;26.33;12.90;;;128.50;1817.60;;;;;;5121228;28;20035;-56
2021/11/30 07:20:25;;;;;;;19.70;12.43;;;128.50;1817.60;;;;;;5121315;28;20020;-56
2021/11/30 07:22:56;;;;;;;23.30;12.98;;;128.50;1817.60;;;;;;5121258;28;20014;-56
2021/11/30 07:25:22;;;;;;;61.92;28.00;;;128.50;1817.60;;;;;;5121159;28;20121;-56
2021/11/30 07:27:48;;;;;;;54.42;27.27;;;128.50;1817.60;;;;;;5121175;28;20068;-56
2021/11/30 07:30:14;;;;;;;42.80;23.77;;;128.50;1817.60;;;;;;5121054;28;20013;-56
2021/11/30 07:32:39;;;;;;;31.02;18.55;;;128.50;1843.20;;;;;;5120940;28;20008;-56
2021/11/30 07:35:06;;;;;;;18.02;12.48;;;128.60;1843.20;;;;;;5121072;28;20008;-56
2021/11/30 07:37:32;;;;;;;15.50;9.75;;;128.60;1817.60;;;;;;5120856;28;20008;-56
2021/11/30 07:39:58;;;;;;;12.95;8.23;;;128.70;1843.20;;;;;;5120927;28;20019;-56
2021/11/30 07:42:26;;;;;;;13.68;8.57;;;128.70;1817.60;;;;;;5120400;28;20020;-57
2021/11/30 07:44:51;;;;;;;16.17;8.13;;;128.70;1817.60;;;;;;5103051;28;20096;-56
2021/11/30 07:47:17;;;;;;;11.40;7.70;;;128.80;1817.60;;;;;;5120780;28;20031;-55
2021/11/30 07:49:43;;;;;;;11.30;7.63;;;128.80;1817.60;;;;;;5119726;28;20012;-56
2021/11/30 07:52:12;;;;;;;11.75;7.20;;;128.80;1843.20;;;;;;5120449;28;20036;-56
2021/11/30 07:54:38;;;;;;;13.95;7.03;;;128.80;1817.60;;;;;;5120496;28;20043;-56
2021/11/30 07:57:03;;;;;;;11.75;7.05;;;128.90;1817.60;;;;;;5120632;28;20015;-55
2021/11/30 07:59:29;;;;;;;12.27;7.45;;;128.90;1817.60;;;;;;5120378;28;20012;-56
2021/11/30 08:01:55;;;;;;;15.23;9.52;;;128.90;1817.60;;;;;;5120588;28;20028;-55
2021/11/30 08:04:21;;;;;;;17.83;8.95;;;128.90;1817.60;;;;;;5120400;28;20072;-56
2021/11/30 08:06:47;;;;;;;27.55;12.15;;;153.60;1792.00;;;;;;5120276;28;20024;-56
2021/11/30 08:09:12;;;;;;;25.42;12.30;;;128.90;1817.60;;;;;;5120383;28;20020;-55
2021/11/30 08:11:38;;;;;;;20.70;12.68;;;153.60;1817.60;;;;;;5120263;28;20012;-56
2021/11/30 08:14:04;;;;;;;24.40;12.60;;;153.60;1817.60;;;;;;5120242;28;20004;-56
2021/11/30 08:16:30;;;;;;;17.00;10.60;;;153.60;1817.60;;;;;;5120164;28;20071;-56
2021/11/30 08:18:56;;;;;;;18.48;11.43;;;153.60;1817.60;;;;;;5120120;28;20038;-55
2021/11/30 08:21:21;;;;;;;16.10;10.95;;;153.60;1817.60;;;;;;5120065;28;20016;-56
2021/11/30 08:23:47;;;;;;;16.40;10.70;;;153.70;1817.60;;;;;;5120136;28;20020;-56
2021/11/30 08:26:13;;;;;;;14.13;9.25;;;153.70;1792.00;;;;;;5119934;28;20071;-56
2021/11/30 08:28:40;;;;;;;13.68;8.75;;;153.70;1792.00;;;;;;5119991;28;20027;-55
2021/11/30 08:31:06;;;;;;;16.83;9.63;;;153.80;1792.00;;;;;;5119902;28;20012;-56
2021/11/30 08:33:32;;;;;;;12.43;8.98;;;153.70;1792.00;;;;;;5119832;28;20012;-56
2021/11/30 08:35:58;;;;;;;12.48;9.18;;;153.80;1792.00;;;;;;5119817;28;20020;-56
2021/11/30 08:38:24;;;;;;;14.00;9.07;;;153.80;1792.00;;;;;;5119596;28;20071;-56
2021/11/30 08:40:50;;;;;;;14.80;9.05;;;153.90;1792.00;;;;;;5119756;28;20081;-56
2021/11/30 08:43:16;;;;;;;12.65;8.77;;;153.90;1792.00;;;;;;5119653;28;20012;-55
2021/11/30 08:45:42;;;;;;;15.77;9.90;;;153.90;1792.00;;;;;;5119444;28;20012;-56
2021/11/30 08:48:09;;;;;;;17.75;9.73;;;154.00;1792.00;;;;;;5119446;28;20109;-56
2021/11/30 08:50:35;;;;;;;14.70;10.32;;;154.10;1792.00;;;;;;5119355;28;20008;-55
2021/11/30 08:53:01;;;;;;;21.40;14.52;;;154.10;1792.00;;;;;;5119651;28;20023;-56
2021/11/30 08:55:27;;;;;;;36.47;25.58;;;154.10;1766.40;;;;;;5119326;28;20047;-56
2021/11/30 08:57:53;;;;;;;30.40;21.13;;;154.10;1792.00;;;;;;5119167;28;20063;-56
2021/11/30 09:00:24;;;;;;;30.83;19.58;;;154.20;1792.00;;;;;;5119206;28;20016;-56
2021/11/30 09:02:50;;;;;;;18.35;13.63;;;154.30;1792.00;;;;;;5118653;28;20024;-56
2021/11/30 09:05:19;;;;;;;17.88;12.07;;;154.40;1792.00;;;;;;5119147;28;20015;-56
2021/11/30 09:07:45;;;;;;;15.85;10.13;;;154.40;1766.40;;;;;;5119143;28;20031;-55
2021/11/30 09:10:10;;;;;;;13.23;9.70;;;154.50;1766.40;;;;;;5119225;28;20004;-56
2021/11/30 09:12:37;;;;;;;14.05;9.13;;;179.20;1740.80;;;;;;5119134;28;20036;-56
2021/11/30 09:15:05;;;;;;;10.35;7.57;;;179.20;1740.80;;;;;;5119045;28;20030;-56
2021/11/30 09:17:31;;;;;;;11.52;7.30;;;179.30;1740.80;;;;;;5118966;28;20018;-56
2021/11/30 09:19:57;;;;;;;12.32;7.60;;;179.30;1715.20;;;;;;5118906;28;20031;-55
2021/11/30 09:22:25;;;;;;;11.55;7.68;;;179.30;1715.20;;;;;;5118899;28;20016;-56
2021/11/30 09:24:51;;;;;;;9.65;6.90;;;179.40;1689.60;;;;;;5118978;28;20008;-55
2021/11/30 09:27:17;;;;;;;11.38;7.38;;;179.40;1689.60;;;;;;5118808;28;20043;-55
2021/11/30 09:29:43;;;;;;;13.93;8.23;;;179.50;1689.60;;;;;;5118919;28;20016;-56
2021/11/30 09:32:10;;;;;;;11.77;7.97;;;179.50;1689.60;;;;;;5118798;28;20053;-56
2021/11/30 09:34:36;;;;;;;23.77;11.93;;;179.60;1689.60;;;;;;5118746;28;20017;-56
2021/11/30 09:37:02;;;;;;;16.73;9.40;;;179.60;1689.60;;;;;;5118435;28;20027;-56
2021/11/30 09:39:28;;;;;;;9.68;7.07;;;179.70;1689.60;;;;;;5118745;28;20012;-56
2021/11/30 09:41:54;;;;;;;9.43;6.68;;;179.70;1689.60;;;;;;5118753;28;20076;-56
2021/11/30 09:44:19;;;;;;;10.30;7.05;;;179.80;1664.00;;;;;;5118618;28;20034;-56
2021/11/30 09:46:46;;;;;;;9.57;6.05;;;179.80;1664.00;;;;;;5118405;28;20019;-56
2021/11/30 09:49:13;;;;;;;8.57;6.57;;;179.80;1664.00;;;;;;5118394;28;20068;-56
2021/11/30 09:51:39;;;;;;;9.77;6.65;;;179.90;1664.00;;;;;;5118145;28;20071;-56
2021/11/30 09:54:05;;;;;;;8.90;7.15;;;180.00;1638.40;;;;;;5118248;28;20048;-56
2021/11/30 09:56:31;;;;;;;15.40;6.97;;;180.00;1638.40;;;;;;5118383;28;20031;-56
2021/11/30 09:58:57;;;;;;;9.50;6.30;;;180.00;1638.40;;;;;;5118503;28;20026;-56
2021/11/30 10:01:23;;;;;;;8.70;5.88;;;180.10;1612.80;;;;;;5118413;28;20020;-56
2021/11/30 10:03:48;;;;;;;8.60;6.28;;;180.10;1612.80;;;;;;5118399;28;20068;-56
2021/11/30 10:06:15;;;;;;;10.05;6.25;;;180.10;1612.80;;;;;;5118397;28;20012;-56
2021/11/30 10:08:46;;;;;;;8.95;6.45;;;180.10;1612.80;;;;;;5118310;28;20020;-56
2021/11/30 10:11:31;;;;;;;8.60;6.35;;;204.80;1612.80;;;;;;5117925;28;20026;-56
2021/11/30 10:14:07;;;;;;;10.50;6.80;;;204.80;1587.20;;;;;;5118348;28;20028;-55
2021/11/30 10:16:33;;;;;;;14.90;8.27;;;204.80;1612.80;;;;;;5122538;28;20016;-56
2021/11/30 10:19:00;;;;;;;13.43;8.13;;;204.80;1587.20;;;;;;5104568;28;20016;-56
2021/11/30 10:21:25;;;;;;;15.48;9.02;;;204.80;1587.20;;;;;;5122566;28;20035;-56
2021/11/30 10:24:01;;;;;;;14.93;8.73;;;204.90;1587.20;;;;;;5122460;28;20008;-56
2021/11/30 10:26:33;;;;;;;12.63;7.70;;;204.90;1587.20;;;;;;5122294;28;20008;-56
2021/11/30 10:29:09;;;;;;;8.73;6.85;;;204.90;1587.20;;;;;;5122317;28;20013;-56
2021/11/30 10:31:42;;;;;;;11.32;7.05;;;204.90;1587.20;;;;;;5122239;28;20013;-56
2021/11/30 10:34:27;;;;;;;12.63;6.88;;;205.00;1561.60;;;;;;5122202;28;20028;-56
2021/11/30 10:36:57;;;;;;;10.25;5.35;;;205.00;1561.60;;;;;;5122224;28;20015;-55
2021/11/30 10:39:25;;;;;;;9.57;6.57;;;205.00;1561.60;;;;;;5122089;28;20016;-56
2021/11/30 10:41:53;;;;;;;9.60;7.47;;;205.00;1561.60;;;;;;5121894;28;20034;-56
2021/11/30 10:44:30;;;;;;;11.45;8.13;;;205.10;1536.00;;;;;;5122005;28;20012;-56
2021/11/30 10:47:11;;;;;;;14.05;9.23;;;205.00;1536.00;;;;;;5103924;28;20028;-56
2021/11/30 10:49:48;;;;;;;13.48;7.90;;;205.00;1561.60;;;;;;5121448;28;20076;-56
2021/11/30 10:52:25;;;;;;;12.75;8.77;;;205.10;1536.00;;;;;;5121820;28;20044;-56
2021/11/30 10:55:05;;;;;;;15.40;8.93;;;205.10;1561.60;;;;;;5121781;28;20043;-56
2021/11/30 10:57:32;;;;;;;19.52;9.57;;;205.10;1561.60;;;;;;5121777;28;20037;-56
2021/11/30 11:00:23;;;;;;;13.95;7.75;;;205.20;1561.60;;;;;;5121694;28;20032;-56
2021/11/30 11:03:04;;;;;;;11.98;6.90;;;205.30;1536.00;;;;;;5121571;28;20016;-56
2021/11/30 11:05:35;;;;;;;12.38;7.95;;;205.30;1510.40;;;;;;5121697;28;20071;-56
2021/11/30 11:08:09;;;;;;;11.18;7.10;;;205.30;1510.40;;;;;;5121435;28;20036;-56
2021/11/30 11:10:38;;;;;;;11.30;7.82;;;205.30;1510.40;;;;;;5121401;28;20012;-56
2021/11/30 11:13:20;;;;;;;13.25;8.65;;;205.30;1510.40;;;;;;5121438;28;20020;-56
2021/11/30 11:15:46;;;;;;;13.55;8.20;;;205.30;1484.80;;;;;;5121314;28;20020;-55
2021/11/30 11:18:31;;;;;;;25.85;12.35;;;205.40;1484.80;;;;;;5121336;28;20020;-56
2021/11/30 11:21:34;;;;;;;34.40;10.18;;;205.40;1536.00;;;;;;5121389;28;20020;-56
2021/11/30 11:24:04;;;;;;;27.25;8.85;;;205.40;1510.40;;;;;;5120977;28;20031;-56
2021/11/30 11:26:41;;;;;;;19.67;8.10;;;205.50;1510.40;;;;;;5120480;28;20068;-56
2021/11/30 11:29:12;;;;;;;46.53;29.77;;;205.50;1510.40;;;;;;5121108;28;20020;-59
2021/11/30 11:31:40;;;;;;;80.63;48.20;;;205.60;1638.40;;;;;;5120986;28;20020;-58
2021/11/30 11:34:07;;;;;;;53.90;38.17;;;230.40;1612.80;;;;;;5120873;28;20020;-56
2021/11/30 11:36:33;;;;;;;31.30;23.30;;;230.50;1536.00;;;;;;5120915;28;20012;-56
2021/11/30 11:38:59;;;;;;;36.45;22.88;;;230.50;1484.80;;;;;;5120983;28;20019;-56
2021/11/30 11:41:25;;;;;;;44.35;27.25;;;230.50;1484.80;;;;;;5120715;28;20035;-55
2021/11/30 11:43:53;;;;;;;35.20;23.60;;;230.50;1459.20;;;;;;5119468;28;20032;-55
2021/11/30 11:46:20;;;;;;;31.98;22.92;;;230.50;1433.60;;;;;;5120204;28;20020;-56
2021/11/30 11:48:53;;;;;;;30.05;21.42;;;230.50;1433.60;;;;;;5120186;28;20023;-56
2021/11/30 11:51:19;;;;;;;23.92;16.40;;;230.60;1459.20;;;;;;5120164;28;20034;-55
2021/11/30 11:53:56;;;;;;;21.35;12.48;;;230.50;1433.60;;;;;;5119991;28;20031;-56
2021/11/30 11:56:27;;;;;;;15.77;11.50;;;230.50;1433.60;;;;;;5120163;28;20020;-55
2021/11/30 11:59:18;;;;;;;18.25;12.93;;;230.50;1433.60;;;;;;5119969;28;20009;-56
2021/11/30 12:01:50;;;;;;;21.80;14.35;;;230.60;1433.60;;;;;;5118206;28;20012;-55
2021/11/30 12:04:18;;;;;;;21.20;14.38;;;230.60;1433.60;;;;;;5119910;28;20027;-56
2021/11/30 12:07:02;;;;;;;33.20;17.67;;;230.60;1433.60;;;;;;5119942;28;20035;-55
2021/11/30 12:09:32;;;;;;;29.50;16.50;;;230.60;1433.60;;;;;;5118540;28;20027;-55
2021/11/30 12:12:01;;;;;;;26.92;14.13;;;230.60;1433.60;;;;;;5120118;28;20028;-59
2021/11/30 12:14:43;;;;;;;18.15;11.40;;;230.60;1408.00;;;;;;5119793;28;20023;-56
2021/11/30 12:17:16;;;;;;;20.83;11.27;;;230.60;1408.00;;;;;;5119396;28;20012;-59